sensor_id;sensor_type;location;lat;lon;timestamp;pressure;altitude;pressure_sealevel;temperature;humidity
47154;BME280;32907;41.412;2.164;2023-05-03T00:00:53;100796.75;;;23.34;45.79
47154;BME280;32907;41.412;2.164;2023-05-03T00:03:22;100793.22;;;23.33;45.50
47154;BME280;32907;41.412;2.164;2023-05-03T00:05:50;100786.94;;;23.33;45.73
47154;BME280;32907;41.412;2.164;2023-05-03T00:08:18;100781.47;;;23.33;45.82
47154;BME280;32907;41.412;2.164;2023-05-03T00:10:48;100729.16;;;22.98;45.73
47154;BME280;32907;41.412;2.164;2023-05-03T00:13:16;100634.72;;;22.37;45.56
47154;BME280;32907;41.412;2.164;2023-05-03T00:15:43;100777.75;;;23.29;45.53
47154;BME280;32907;41.412;2.164;2023-05-03T00:18:11;100756.38;;;23.17;45.52
47154;BME280;32907;41.412;2.164;2023-05-03T00:20:39;100782.09;;;23.30;45.77
47154;BME280;32907;41.412;2.164;2023-05-03T00:23:07;100765.78;;;23.25;45.68
47154;BME280;32907;41.412;2.164;2023-05-03T00:25:35;100769.31;;;23.25;45.54
47154;BME280;32907;41.412;2.164;2023-05-03T00:28:03;100772.28;;;23.29;45.44
47154;BME280;32907;41.412;2.164;2023-05-03T00:30:31;100756.25;;;23.22;44.98
47154;BME280;32907;41.412;2.164;2023-05-03T00:32:59;100737.66;;;23.10;45.17
47154;BME280;32907;41.412;2.164;2023-05-03T00:35:26;100737.44;;;23.07;45.30
47154;BME280;32907;41.412;2.164;2023-05-03T00:37:54;100724.41;;;23.04;45.34
47154;BME280;32907;41.412;2.164;2023-05-03T00:40:22;100711.44;;;22.96;45.42
47154;BME280;32907;41.412;2.164;2023-05-03T00:42:50;100728.44;;;23.06;45.66
47154;BME280;32907;41.412;2.164;2023-05-03T00:45:18;100720.94;;;22.98;45.39
47154;BME280;32907;41.412;2.164;2023-05-03T00:47:48;100737.94;;;23.09;45.35
47154;BME280;32907;41.412;2.164;2023-05-03T00:50:16;100757.19;;;23.17;45.45
47154;BME280;32907;41.412;2.164;2023-05-03T00:52:44;100709.13;;;22.89;45.18
47154;BME280;32907;41.412;2.164;2023-05-03T00:55:13;100702.63;;;22.85;45.43
47154;BME280;32907;41.412;2.164;2023-05-03T00:57:42;100720.63;;;23.00;45.40
47154;BME280;32907;41.412;2.164;2023-05-03T01:00:11;100724.47;;;23.12;45.63
47154;BME280;32907;41.412;2.164;2023-05-03T01:02:40;100701.81;;;22.98;45.44
47154;BME280;32907;41.412;2.164;2023-05-03T01:05:08;100720.41;;;23.10;45.32
47154;BME280;32907;41.412;2.164;2023-05-03T01:07:39;100731.31;;;23.24;45.32
47154;BME280;32907;41.412;2.164;2023-05-03T01:10:20;100716.44;;;23.16;45.56
47154;BME280;32907;41.412;2.164;2023-05-03T01:18:29;100735.00;;;23.19;45.74
47154;BME280;32907;41.412;2.164;2023-05-03T01:20:59;100706.44;;;23.11;45.54
47154;BME280;32907;41.412;2.164;2023-05-03T01:23:45;100716.13;;;23.17;45.42
47154;BME280;32907;41.412;2.164;2023-05-03T01:26:18;100718.28;;;23.21;45.47
47154;BME280;32907;41.412;2.164;2023-05-03T01:28:47;100706.44;;;23.11;45.67
47154;BME280;32907;41.412;2.164;2023-05-03T01:31:39;100714.53;;;23.16;45.81
47154;BME280;32907;41.412;2.164;2023-05-03T01:36:44;100676.31;;;22.89;46.04
47154;BME280;32907;41.412;2.164;2023-05-03T01:39:22;100708.97;;;23.08;45.84
47154;BME280;32907;41.412;2.164;2023-05-03T01:41:51;100719.00;;;23.12;46.20
47154;BME280;32907;41.412;2.164;2023-05-03T01:44:20;100718.50;;;23.10;45.96
47154;BME280;32907;41.412;2.164;2023-05-03T01:46:49;100682.91;;;22.88;46.18
47154;BME280;32907;41.412;2.164;2023-05-03T01:49:17;100678.63;;;22.96;46.08
47154;BME280;32907;41.412;2.164;2023-05-03T01:51:44;100691.69;;;22.99;46.11
47154;BME280;32907;41.412;2.164;2023-05-03T01:54:12;100704.00;;;23.10;46.14
47154;BME280;32907;41.412;2.164;2023-05-03T01:56:40;100707.56;;;23.10;45.91
47154;BME280;32907;41.412;2.164;2023-05-03T01:59:08;100650.88;;;22.75;46.45
47154;BME280;32907;41.412;2.164;2023-05-03T02:01:36;100706.56;;;23.06;46.63
47154;BME280;32907;41.412;2.164;2023-05-03T02:04:04;100639.56;;;22.68;46.71
47154;BME280;32907;41.412;2.164;2023-05-03T02:06:31;100650.16;;;22.69;46.35
47154;BME280;32907;41.412;2.164;2023-05-03T02:08:59;100679.66;;;22.86;46.74
47154;BME280;32907;41.412;2.164;2023-05-03T02:11:27;100692.00;;;22.97;46.54
47154;BME280;32907;41.412;2.164;2023-05-03T02:13:55;100688.13;;;22.98;46.95
47154;BME280;32907;41.412;2.164;2023-05-03T02:16:23;100665.16;;;22.85;46.69
47154;BME280;32907;41.412;2.164;2023-05-03T02:18:51;100687.72;;;23.05;46.46
47154;BME280;32907;41.412;2.164;2023-05-03T02:21:20;100652.09;;;22.82;46.92
47154;BME280;32907;41.412;2.164;2023-05-03T02:23:48;100651.91;;;22.79;47.01
47154;BME280;32907;41.412;2.164;2023-05-03T02:26:16;100654.50;;;22.84;47.28
47154;BME280;32907;41.412;2.164;2023-05-03T02:28:43;100679.03;;;23.03;47.10
47154;BME280;32907;41.412;2.164;2023-05-03T02:31:11;100622.16;;;22.64;47.29
47154;BME280;32907;41.412;2.164;2023-05-03T02:33:43;100611.81;;;22.60;47.49
47154;BME280;32907;41.412;2.164;2023-05-03T02:36:10;100681.22;;;23.01;47.32
47154;BME280;32907;41.412;2.164;2023-05-03T02:38:38;100676.00;;;22.91;47.33
47154;BME280;32907;41.412;2.164;2023-05-03T02:41:06;100649.66;;;22.81;47.06
47154;BME280;32907;41.412;2.164;2023-05-03T02:43:34;100651.28;;;22.82;47.30
47154;BME280;32907;41.412;2.164;2023-05-03T02:46:02;100641.78;;;22.79;47.32
47154;BME280;32907;41.412;2.164;2023-05-03T02:48:30;100660.22;;;22.87;47.26
47154;BME280;32907;41.412;2.164;2023-05-03T02:50:58;100582.72;;;22.42;47.27
47154;BME280;32907;41.412;2.164;2023-05-03T02:53:26;100587.69;;;22.40;47.30
47154;BME280;32907;41.412;2.164;2023-05-03T02:55:58;100625.38;;;22.66;47.40
47154;BME280;32907;41.412;2.164;2023-05-03T02:58:25;100660.59;;;22.95;47.42
47154;BME280;32907;41.412;2.164;2023-05-03T03:00:54;100638.72;;;22.81;47.55
47154;BME280;32907;41.412;2.164;2023-05-03T03:03:24;100664.44;;;22.94;47.20
47154;BME280;32907;41.412;2.164;2023-05-03T03:05:52;100664.44;;;22.94;47.33
47154;BME280;32907;41.412;2.164;2023-05-03T03:08:21;100664.97;;;22.96;47.52
47154;BME280;32907;41.412;2.164;2023-05-03T03:10:49;100658.69;;;22.95;47.46
47154;BME280;32907;41.412;2.164;2023-05-03T03:13:18;100616.06;;;22.67;47.19
47154;BME280;32907;41.412;2.164;2023-05-03T03:15:45;100626.78;;;22.77;47.23
47154;BME280;32907;41.412;2.164;2023-05-03T03:18:13;100652.31;;;22.86;47.32
47154;BME280;32907;41.412;2.164;2023-05-03T03:20:43;100630.63;;;22.76;47.04
47154;BME280;32907;41.412;2.164;2023-05-03T03:23:11;100637.13;;;22.80;46.96
47154;BME280;32907;41.412;2.164;2023-05-03T03:25:40;100640.84;;;22.84;47.09
47154;BME280;32907;41.412;2.164;2023-05-03T03:28:08;100637.00;;;22.85;46.96
47154;BME280;32907;41.412;2.164;2023-05-03T03:30:37;100606.25;;;22.66;46.82
47154;BME280;32907;41.412;2.164;2023-05-03T03:33:15;100599.78;;;22.61;46.47
47154;BME280;32907;41.412;2.164;2023-05-03T03:35:44;100625.78;;;22.73;46.97
47154;BME280;32907;41.412;2.164;2023-05-03T03:38:12;100592.81;;;22.55;46.87
47154;BME280;32907;41.412;2.164;2023-05-03T03:40:48;100612.59;;;22.75;46.64
47154;BME280;32907;41.412;2.164;2023-05-03T03:43:16;100648.56;;;22.96;46.45
47154;BME280;32907;41.412;2.164;2023-05-03T03:45:44;100628.28;;;22.83;46.11
47154;BME280;32907;41.412;2.164;2023-05-03T03:48:14;100651.28;;;22.96;46.32
47154;BME280;32907;41.412;2.164;2023-05-03T03:50:42;100634.00;;;22.86;46.04
47154;BME280;32907;41.412;2.164;2023-05-03T03:53:12;100618.69;;;22.72;45.61
47154;BME280;32907;41.412;2.164;2023-05-03T03:55:40;100647.75;;;22.95;45.47
47154;BME280;32907;41.412;2.164;2023-05-03T03:58:08;100609.47;;;22.68;45.47
47154;BME280;32907;41.412;2.164;2023-05-03T04:00:37;100626.28;;;22.75;45.68
47154;BME280;32907;41.412;2.164;2023-05-03T04:03:11;100625.47;;;22.74;45.09
47154;BME280;32907;41.412;2.164;2023-05-03T04:05:39;100592.81;;;22.55;44.64
47154;BME280;32907;41.412;2.164;2023-05-03T04:08:07;100615.44;;;22.70;45.10
47154;BME280;32907;41.412;2.164;2023-05-03T04:10:37;100634.06;;;22.81;44.92
47154;BME280;32907;41.412;2.164;2023-05-03T04:13:08;100637.91;;;22.80;44.23
47154;BME280;32907;41.412;2.164;2023-05-03T04:15:36;100620.91;;;22.70;44.52
47154;BME280;32907;41.412;2.164;2023-05-03T04:18:04;100606.44;;;22.69;44.17
47154;BME280;32907;41.412;2.164;2023-05-03T04:20:37;100585.13;;;22.57;43.85
47154;BME280;32907;41.412;2.164;2023-05-03T04:23:07;100643.69;;;22.93;43.58
47154;BME280;32907;41.412;2.164;2023-05-03T04:25:34;100618.88;;;22.75;43.62
47154;BME280;32907;41.412;2.164;2023-05-03T04:28:11;100631.25;;;22.86;43.74
47154;BME280;32907;41.412;2.164;2023-05-03T04:30:43;100623.22;;;22.76;43.63
47154;BME280;32907;41.412;2.164;2023-05-03T04:33:16;100646.72;;;22.91;43.51
47154;BME280;32907;41.412;2.164;2023-05-03T04:35:44;100647.22;;;22.93;44.00
47154;BME280;32907;41.412;2.164;2023-05-03T04:38:14;100594.63;;;22.60;43.64
47154;BME280;32907;41.412;2.164;2023-05-03T04:40:42;100622.00;;;22.82;43.93
47154;BME280;32907;41.412;2.164;2023-05-03T04:43:11;100622.44;;;22.76;43.68
47154;BME280;32907;41.412;2.164;2023-05-03T04:45:43;100588.16;;;22.56;43.23
47154;BME280;32907;41.412;2.164;2023-05-03T04:48:16;100622.25;;;22.72;43.28
47154;BME280;32907;41.412;2.164;2023-05-03T04:50:44;100587.56;;;22.45;43.36
47154;BME280;32907;41.412;2.164;2023-05-03T04:53:15;100656.16;;;22.85;43.79
47154;BME280;32907;41.412;2.164;2023-05-03T04:55:46;100646.84;;;22.86;44.61
47154;BME280;32907;41.412;2.164;2023-05-03T04:58:14;100632.38;;;22.72;44.49
47154;BME280;32907;41.412;2.164;2023-05-03T05:00:44;100667.31;;;22.88;44.64
47154;BME280;32907;41.412;2.164;2023-05-03T05:03:18;100673.56;;;22.89;44.93
47154;BME280;32907;41.412;2.164;2023-05-03T05:05:47;100640.44;;;22.77;44.60
47154;BME280;32907;41.412;2.164;2023-05-03T05:08:15;100622.16;;;22.64;45.07
47154;BME280;32907;41.412;2.164;2023-05-03T05:10:49;100626.50;;;22.65;44.90
47154;BME280;32907;41.412;2.164;2023-05-03T05:13:21;100625.00;;;22.58;44.96
47154;BME280;32907;41.412;2.164;2023-05-03T05:15:52;100646.03;;;22.72;45.26
47154;BME280;32907;41.412;2.164;2023-05-03T05:18:21;100691.78;;;22.94;45.08
47154;BME280;32907;41.412;2.164;2023-05-03T05:20:50;100694.22;;;22.95;45.24
47154;BME280;32907;41.412;2.164;2023-05-03T05:23:19;100699.69;;;22.95;46.10
47154;BME280;32907;41.412;2.164;2023-05-03T05:25:47;100656.06;;;22.63;46.18
47154;BME280;32907;41.412;2.164;2023-05-03T05:28:16;100673.56;;;22.75;46.00
47154;BME280;32907;41.412;2.164;2023-05-03T05:30:45;100712.75;;;22.98;45.72
47154;BME280;32907;41.412;2.164;2023-05-03T05:33:13;100669.63;;;22.68;45.84
47154;BME280;32907;41.412;2.164;2023-05-03T05:35:52;100654.97;;;22.64;45.61
47154;BME280;32907;41.412;2.164;2023-05-03T05:38:26;100622.47;;;22.48;45.55
47154;BME280;32907;41.412;2.164;2023-05-03T05:40:57;100713.25;;;23.00;46.08
47154;BME280;32907;41.412;2.164;2023-05-03T05:43:25;100645.25;;;22.57;46.06
47154;BME280;32907;41.412;2.164;2023-05-03T05:45:54;100723.88;;;23.02;46.22
47154;BME280;32907;41.412;2.164;2023-05-03T05:48:23;100681.44;;;22.77;46.69
47154;BME280;32907;41.412;2.164;2023-05-03T05:50:51;100697.75;;;22.82;46.91
47154;BME280;32907;41.412;2.164;2023-05-03T05:53:19;100724.59;;;23.07;46.52
47154;BME280;32907;41.412;2.164;2023-05-03T05:55:54;100667.69;;;22.68;45.96
47154;BME280;32907;41.412;2.164;2023-05-03T05:58:24;100730.19;;;23.02;46.09
47154;BME280;32907;41.412;2.164;2023-05-03T06:00:58;100709.19;;;22.84;46.69
47154;BME280;32907;41.412;2.164;2023-05-03T06:03:30;100727.75;;;22.87;46.44
47154;BME280;32907;41.412;2.164;2023-05-03T06:06:00;100684.91;;;22.69;46.63
47154;BME280;32907;41.412;2.164;2023-05-03T06:08:28;100705.38;;;22.85;46.35
47154;BME280;32907;41.412;2.164;2023-05-03T06:10:56;100699.19;;;22.79;46.63
47154;BME280;32907;41.412;2.164;2023-05-03T06:13:29;100722.69;;;22.94;46.49
47154;BME280;32907;41.412;2.164;2023-05-03T06:16:01;100718.44;;;22.88;46.10
47154;BME280;32907;41.412;2.164;2023-05-03T06:18:29;100746.97;;;23.09;46.17
47154;BME280;32907;41.412;2.164;2023-05-03T06:20:56;100739.78;;;23.00;46.42
47154;BME280;32907;41.412;2.164;2023-05-03T06:23:24;100734.31;;;23.00;46.46
47154;BME280;32907;41.412;2.164;2023-05-03T06:25:56;100738.25;;;23.07;46.55
47154;BME280;32907;41.412;2.164;2023-05-03T06:28:24;100683.91;;;22.78;46.35
47154;BME280;32907;41.412;2.164;2023-05-03T06:30:54;100684.72;;;22.79;46.43
47154;BME280;32907;41.412;2.164;2023-05-03T06:33:22;100714.75;;;23.06;46.17
47154;BME280;32907;41.412;2.164;2023-05-03T06:35:51;100712.13;;;23.01;46.79
47154;BME280;32907;41.412;2.164;2023-05-03T06:38:19;100744.03;;;23.20;46.87
47154;BME280;32907;41.412;2.164;2023-05-03T06:40:47;100725.59;;;23.11;46.84
47154;BME280;32907;41.412;2.164;2023-05-03T06:43:16;100746.13;;;23.23;46.44
47154;BME280;32907;41.412;2.164;2023-05-03T06:46:05;100732.69;;;23.12;46.03
47154;BME280;32907;41.412;2.164;2023-05-03T06:48:33;100717.00;;;23.04;45.83
47154;BME280;32907;41.412;2.164;2023-05-03T06:51:00;100743.00;;;23.15;46.11
47154;BME280;32907;41.412;2.164;2023-05-03T06:53:29;100739.94;;;23.17;51.28
47154;BME280;32907;41.412;2.164;2023-05-03T06:55:56;100729.22;;;23.21;51.54
47154;BME280;32907;41.412;2.164;2023-05-03T06:58:24;100743.88;;;23.38;50.11
47154;BME280;32907;41.412;2.164;2023-05-03T07:00:52;100710.56;;;23.23;50.14
47154;BME280;32907;41.412;2.164;2023-05-03T07:03:20;100751.22;;;23.52;49.40
47154;BME280;32907;41.412;2.164;2023-05-03T07:05:48;100752.22;;;23.56;48.70
47154;BME280;32907;41.412;2.164;2023-05-03T07:08:16;100751.91;;;23.57;46.65
47154;BME280;32907;41.412;2.164;2023-05-03T07:10:44;100696.78;;;23.28;46.84
47154;BME280;32907;41.412;2.164;2023-05-03T07:13:11;100736.41;;;23.53;47.63
47154;BME280;32907;41.412;2.164;2023-05-03T07:15:40;100754.06;;;23.60;48.18
47154;BME280;32907;41.412;2.164;2023-05-03T07:18:08;100711.41;;;23.45;48.37
47154;BME280;32907;41.412;2.164;2023-05-03T07:20:36;100736.53;;;23.61;47.46
47154;BME280;32907;41.412;2.164;2023-05-03T07:23:04;100721.13;;;23.52;48.31
47154;BME280;32907;41.412;2.164;2023-05-03T07:25:33;100734.75;;;23.65;47.95
47154;BME280;32907;41.412;2.164;2023-05-03T07:28:01;100696.09;;;23.44;47.56
47154;BME280;32907;41.412;2.164;2023-05-03T07:30:30;100729.88;;;23.76;44.94
47154;BME280;32907;41.412;2.164;2023-05-03T07:32:57;100703.69;;;23.48;44.22
47154;BME280;32907;41.412;2.164;2023-05-03T07:35:25;100726.44;;;23.57;44.62
47154;BME280;32907;41.412;2.164;2023-05-03T07:37:53;100720.00;;;23.53;44.31
47154;BME280;32907;41.412;2.164;2023-05-03T07:40:21;100745.22;;;23.63;43.92
47154;BME280;32907;41.412;2.164;2023-05-03T07:42:50;100716.88;;;23.45;43.74
47154;BME280;32907;41.412;2.164;2023-05-03T07:45:18;100736.09;;;23.54;43.56
47154;BME280;32907;41.412;2.164;2023-05-03T07:47:47;100732.19;;;23.47;43.52
47154;BME280;32907;41.412;2.164;2023-05-03T07:50:17;100739.66;;;23.55;43.35
47154;BME280;32907;41.412;2.164;2023-05-03T07:52:47;100707.09;;;23.31;43.18
47154;BME280;32907;41.412;2.164;2023-05-03T07:55:18;100697.59;;;23.28;43.45
47154;BME280;32907;41.412;2.164;2023-05-03T07:57:47;100739.84;;;23.58;43.12
47154;BME280;32907;41.412;2.164;2023-05-03T08:00:16;100689.69;;;23.27;43.03
47154;BME280;32907;41.412;2.164;2023-05-03T08:02:44;100740.38;;;23.60;43.03
47154;BME280;32907;41.412;2.164;2023-05-03T08:05:13;100736.00;;;23.59;43.16
47154;BME280;32907;41.412;2.164;2023-05-03T08:07:41;100711.09;;;23.47;42.69
47154;BME280;32907;41.412;2.164;2023-05-03T08:10:09;100734.91;;;23.60;43.65
47154;BME280;32907;41.412;2.164;2023-05-03T08:12:37;100733.53;;;23.58;43.77
47154;BME280;32907;41.412;2.164;2023-05-03T08:15:06;100739.25;;;23.61;43.56
47154;BME280;32907;41.412;2.164;2023-05-03T08:17:44;100730.41;;;23.64;43.99
47154;BME280;32907;41.412;2.164;2023-05-03T08:20:12;100696.53;;;23.38;43.54
47154;BME280;32907;41.412;2.164;2023-05-03T08:22:41;100681.59;;;23.22;43.13
47154;BME280;32907;41.412;2.164;2023-05-03T08:25:09;100726.69;;;23.47;43.56
47154;BME280;32907;41.412;2.164;2023-05-03T08:27:37;100713.81;;;23.47;43.70
47154;BME280;32907;41.412;2.164;2023-05-03T08:30:06;100699.28;;;23.38;43.94
47154;BME280;32907;41.412;2.164;2023-05-03T08:32:35;100692.50;;;23.35;43.96
47154;BME280;32907;41.412;2.164;2023-05-03T08:35:03;100732.16;;;23.60;43.94
47154;BME280;32907;41.412;2.164;2023-05-03T08:37:38;100718.19;;;23.48;43.44
47154;BME280;32907;41.412;2.164;2023-05-03T08:40:07;100720.00;;;23.53;43.53
47154;BME280;32907;41.412;2.164;2023-05-03T08:42:44;100734.75;;;23.65;43.13
47154;BME280;32907;41.412;2.164;2023-05-03T08:45:15;100738.41;;;23.75;43.45
47154;BME280;32907;41.412;2.164;2023-05-03T08:47:44;100740.00;;;23.76;43.49
47154;BME280;32907;41.412;2.164;2023-05-03T08:50:14;100732.28;;;23.78;43.33
47154;BME280;32907;41.412;2.164;2023-05-03T08:52:42;100749.69;;;23.82;42.56
47154;BME280;32907;41.412;2.164;2023-05-03T08:55:11;100705.19;;;23.54;42.63
47154;BME280;32907;41.412;2.164;2023-05-03T08:57:40;100720.31;;;23.73;42.25
47154;BME280;32907;41.412;2.164;2023-05-03T09:00:08;100728.06;;;23.71;42.36
47154;BME280;32907;41.412;2.164;2023-05-03T09:02:37;100699.59;;;23.59;42.68
47154;BME280;32907;41.412;2.164;2023-05-03T09:08:11;100742.97;;;23.88;42.50
47154;BME280;32907;41.412;2.164;2023-05-03T09:10:41;100736.84;;;23.82;43.07
47154;BME280;32907;41.412;2.164;2023-05-03T09:13:09;100693.03;;;23.60;43.23
47154;BME280;32907;41.412;2.164;2023-05-03T09:15:38;100710.75;;;23.62;42.97
47154;BME280;32907;41.412;2.164;2023-05-03T09:18:17;100742.50;;;23.86;42.73
47154;BME280;32907;41.412;2.164;2023-05-03T09:20:47;100732.97;;;23.83;42.46
47154;BME280;32907;41.412;2.164;2023-05-03T09:25:53;100744.09;;;23.87;43.06
47154;BME280;32907;41.412;2.164;2023-05-03T09:28:21;100744.91;;;23.87;43.20
47154;BME280;32907;41.412;2.164;2023-05-03T09:30:49;100711.94;;;23.70;43.21
47154;BME280;32907;41.412;2.164;2023-05-03T09:33:30;100722.94;;;23.79;43.70
47154;BME280;32907;41.412;2.164;2023-05-03T09:36:02;100722.19;;;23.87;43.94
47154;BME280;32907;41.412;2.164;2023-05-03T09:38:33;100741.44;;;23.95;44.41
47154;BME280;32907;41.412;2.164;2023-05-03T09:41:02;100737.25;;;23.98;44.05
47154;BME280;32907;41.412;2.164;2023-05-03T09:43:33;100716.03;;;23.81;44.00
47154;BME280;32907;41.412;2.164;2023-05-03T09:46:11;100740.50;;;24.00;44.26
47154;BME280;32907;41.412;2.164;2023-05-03T09:48:40;100738.41;;;24.06;43.11
47154;BME280;32907;41.412;2.164;2023-05-03T09:51:08;100736.47;;;24.06;42.88
47154;BME280;32907;41.412;2.164;2023-05-03T09:53:38;100699.16;;;23.88;42.25
47154;BME280;32907;41.412;2.164;2023-05-03T09:56:10;100727.28;;;24.02;42.20
47154;BME280;32907;41.412;2.164;2023-05-03T09:58:40;100742.47;;;24.08;42.46
47154;BME280;32907;41.412;2.164;2023-05-03T10:01:09;100740.22;;;24.10;42.33
47154;BME280;32907;41.412;2.164;2023-05-03T10:03:41;100743.47;;;24.12;41.95
47154;BME280;32907;41.412;2.164;2023-05-03T10:06:25;100734.69;;;24.02;42.03
47154;BME280;32907;41.412;2.164;2023-05-03T10:09:11;100734.75;;;24.10;42.36
47154;BME280;32907;41.412;2.164;2023-05-03T10:11:47;100709.84;;;23.98;43.11
47154;BME280;32907;41.412;2.164;2023-05-03T10:14:15;100724.44;;;24.07;43.34
47154;BME280;32907;41.412;2.164;2023-05-03T10:16:46;100743.22;;;24.22;43.46
47154;BME280;32907;41.412;2.164;2023-05-03T10:19:18;100702.75;;;23.97;43.58
47154;BME280;32907;41.412;2.164;2023-05-03T10:22:01;100743.69;;;24.24;44.24
47154;BME280;32907;41.412;2.164;2023-05-03T10:24:30;100715.25;;;24.12;44.06
47154;BME280;32907;41.412;2.164;2023-05-03T10:26:59;100708.97;;;24.11;45.08
47154;BME280;32907;41.412;2.164;2023-05-03T10:32:04;100739.84;;;24.25;46.48
47154;BME280;32907;41.412;2.164;2023-05-03T10:34:33;100708.97;;;24.11;46.39
47154;BME280;32907;41.412;2.164;2023-05-03T10:37:07;100716.06;;;24.12;48.02
47154;BME280;32907;41.412;2.164;2023-05-03T10:39:44;100705.28;;;24.16;48.13
47154;BME280;32907;41.412;2.164;2023-05-03T10:42:13;100700.78;;;24.20;45.94
47154;BME280;32907;41.412;2.164;2023-05-03T10:44:53;100708.94;;;24.34;44.99
47154;BME280;32907;41.412;2.164;2023-05-03T10:47:22;100708.97;;;24.42;44.29
47154;BME280;32907;41.412;2.164;2023-05-03T10:52:47;100660.31;;;24.17;42.63
47154;BME280;32907;41.412;2.164;2023-05-03T10:55:20;100674.22;;;24.29;41.36
47154;BME280;32907;41.412;2.164;2023-05-03T10:57:48;100688.63;;;24.35;41.02
47154;BME280;32907;41.412;2.164;2023-05-03T11:00:32;100678.09;;;24.28;39.87
47154;BME280;32907;41.412;2.164;2023-05-03T11:05:48;100656.00;;;24.24;39.25
47154;BME280;32907;41.412;2.164;2023-05-03T11:08:20;100669.06;;;24.27;38.31
47154;BME280;32907;41.412;2.164;2023-05-03T11:10:49;100689.34;;;24.49;38.92
47154;BME280;32907;41.412;2.164;2023-05-03T11:13:24;100687.06;;;24.42;38.50
47154;BME280;32907;41.412;2.164;2023-05-03T11:15:55;100679.31;;;24.44;38.52
47154;BME280;32907;41.412;2.164;2023-05-03T11:18:25;100687.88;;;24.51;38.16
47154;BME280;32907;41.412;2.164;2023-05-03T11:20:54;100668.19;;;24.41;38.22
47154;BME280;32907;41.412;2.164;2023-05-03T11:23:26;100678.22;;;24.54;38.10
47154;BME280;32907;41.412;2.164;2023-05-03T11:25:55;100675.63;;;24.49;38.26
47154;BME280;32907;41.412;2.164;2023-05-03T11:28:26;100679.53;;;24.57;38.70
47154;BME280;32907;41.412;2.164;2023-05-03T11:30:54;100633.81;;;24.35;38.63
47154;BME280;32907;41.412;2.164;2023-05-03T11:33:22;100645.63;;;24.44;38.38
47154;BME280;32907;41.412;2.164;2023-05-03T11:35:54;100601.97;;;24.08;38.23
47154;BME280;32907;41.412;2.164;2023-05-03T11:38:22;100659.50;;;24.47;38.02
47154;BME280;32907;41.412;2.164;2023-05-03T11:40:51;100642.88;;;24.44;38.78
47154;BME280;32907;41.412;2.164;2023-05-03T11:43:19;100665.50;;;24.58;38.80
47154;BME280;32907;41.412;2.164;2023-05-03T11:45:51;100619.75;;;24.27;38.89
47154;BME280;32907;41.412;2.164;2023-05-03T11:48:37;100606.53;;;24.29;39.60
47154;BME280;32907;41.412;2.164;2023-05-03T11:51:08;100677.28;;;24.67;39.71
47154;BME280;32907;41.412;2.164;2023-05-03T11:53:41;100659.88;;;24.63;39.56
47154;BME280;32907;41.412;2.164;2023-05-03T11:56:11;100628.56;;;24.47;39.99
47154;BME280;32907;41.412;2.164;2023-05-03T11:58:56;100640.63;;;24.46;39.32
47154;BME280;32907;41.412;2.164;2023-05-03T12:01:27;100673.59;;;24.72;39.15
47154;BME280;32907;41.412;2.164;2023-05-03T12:04:00;100663.44;;;24.72;39.63
47154;BME280;32907;41.412;2.164;2023-05-03T12:06:31;100630.81;;;24.53;38.97
47154;BME280;32907;41.412;2.164;2023-05-03T12:09:03;100671.81;;;24.76;38.78
47154;BME280;32907;41.412;2.164;2023-05-03T12:11:41;100676.16;;;24.68;36.44
47154;BME280;32907;41.412;2.164;2023-05-03T12:14:11;100675.53;;;24.71;36.21
47154;BME280;32907;41.412;2.164;2023-05-03T12:16:48;100656.28;;;24.54;35.95
47154;BME280;32907;41.412;2.164;2023-05-03T12:19:27;100674.41;;;24.72;35.57
47154;BME280;32907;41.412;2.164;2023-05-03T12:21:59;100673.41;;;24.68;34.69
47154;BME280;32907;41.412;2.164;2023-05-03T12:24:47;100623.88;;;24.47;35.14
47154;BME280;32907;41.412;2.164;2023-05-03T12:27:16;100646.63;;;24.57;34.57
47154;BME280;32907;41.412;2.164;2023-05-03T12:29:46;100661.31;;;24.69;34.21
47154;BME280;32907;41.412;2.164;2023-05-03T12:32:28;100662.13;;;24.70;35.15
47154;BME280;32907;41.412;2.164;2023-05-03T12:34:56;100643.22;;;24.51;35.67
47154;BME280;32907;41.412;2.164;2023-05-03T12:37:28;100670.06;;;24.71;36.67
47154;BME280;32907;41.412;2.164;2023-05-03T12:39:59;100659.56;;;24.73;37.55
47154;BME280;32907;41.412;2.164;2023-05-03T12:42:48;100663.75;;;24.71;37.99
47154;BME280;32907;41.412;2.164;2023-05-03T12:45:16;100642.91;;;24.52;38.41
47154;BME280;32907;41.412;2.164;2023-05-03T12:47:47;100622.41;;;24.50;38.32
47154;BME280;32907;41.412;2.164;2023-05-03T12:50:16;100659.56;;;24.73;38.69
47154;BME280;32907;41.412;2.164;2023-05-03T12:52:45;100633.88;;;24.52;38.48
47154;BME280;32907;41.412;2.164;2023-05-03T12:55:13;100616.13;;;24.49;37.84
47154;BME280;32907;41.412;2.164;2023-05-03T12:57:44;100659.09;;;24.71;38.03
47154;BME280;32907;41.412;2.164;2023-05-03T13:00:32;100625.31;;;24.45;38.45
47154;BME280;32907;41.412;2.164;2023-05-03T13:03:03;100626.91;;;24.46;38.46
47154;BME280;32907;41.412;2.164;2023-05-03T13:05:38;100633.06;;;24.60;38.52
47154;BME280;32907;41.412;2.164;2023-05-03T13:08:08;100659.56;;;24.73;39.30
47154;BME280;32907;41.412;2.164;2023-05-03T13:10:37;100582.50;;;24.26;39.83
47154;BME280;32907;41.412;2.164;2023-05-03T13:13:08;100650.22;;;24.74;39.98
47154;BME280;32907;41.412;2.164;2023-05-03T13:15:36;100624.84;;;24.51;40.09
47154;BME280;32907;41.412;2.164;2023-05-03T13:18:05;100664.41;;;24.76;40.78
47154;BME280;32907;41.412;2.164;2023-05-03T13:20:35;100630.00;;;24.53;41.00
47154;BME280;32907;41.412;2.164;2023-05-03T13:23:03;100666.34;;;24.76;40.43
47154;BME280;32907;41.412;2.164;2023-05-03T13:25:31;100635.84;;;24.69;40.84
47154;BME280;32907;41.412;2.164;2023-05-03T13:27:59;100643.25;;;24.68;41.26